Latest Coastal Weather Observations for Cape Bruny AWS

IDT60701

Issued at 2:35 am EDT Thursday 23 October 2014 (issued every 10 minutes, with the page automatically refreshed every 10 minutes)

About coastal observations | Map of coastal stations | Coastal observations for TAS | Marine services | Other Formats
Station Details ID: 094198 Name: CAPE BRUNY (CAPE BRUNY) Lat: -43.49 Lon: 147.14 Height: 59.7 m
Data from the previous 72 hours. | See also: Recent months at Cape Bruny AWS
Date/Time
EDT
Temp

°C
Wind Pressure Rain
since 9am
mm
Weather Cloud Vis
km
Sea
Height
m
Swell
Dir
 
Speed
knots
Gust
knots
hPa Trend Height
m
Period
s
Dir
23/02:30am 10.7 SW 14 19 1022.4 - 0.0 - - - - - - -
23/02:00am 10.7 SW 16 21 1022.4 - 0.0 - - - - - - -
23/01:30am 10.5 SW 13 19 1022.5 - 0.0 - - - - - - -
23/01:00am 10.6 S 9 13 1022.3 - 0.0 - - - - - - -
23/12:30am 10.6 SW 12 22 1022.0 - 0.0 - - - - - - -
23/12:00am 10.6 WSW 15 26 1021.6 - 0.0 - - - - - - -
 
Date/Time
EDT
Temp

°C
Wind Pressure Rain
since 9am
mm
Weather Cloud Vis
km
Sea
Height
m
Swell
Dir
 
Speed
knots
Gust
knots
hPa Trend Height
m
Period
s
Dir
22/11:30pm 11.2 SW 17 23 1021.0 - 0.0 - - - - - - -
22/11:00pm 11.8 WSW 17 24 1020.6 - 0.0 - - - - - - -
22/10:30pm 12.6 WSW 13 19 1020.0 - 0.0 - - - - - - -
22/10:00pm 12.6 WSW 17 25 1019.7 - 0.0 - - - - - - -
22/09:30pm 12.6 WSW 17 26 1019.1 - 0.0 - - - - - - -
22/09:00pm 12.4 WSW 24 31 1018.4 - 0.0 - - - - - - -
22/08:30pm 12.8 WSW 20 27 1018.1 - 0.0 - - - - - - -
22/08:00pm 13.3 WSW 25 33 1017.0 - 0.0 - - - - - - -
22/07:30pm 13.8 WSW 24 31 1016.3 - 0.0 - - - - - - -
22/07:10pm 14.1 WSW 22 32 1015.6 - 0.0 - - - - - - -
22/07:00pm 14.4 WSW 22 30 1015.5 - 0.0 - - - - - - -
22/06:30pm 15.2 WSW 19 31 1014.6 - 0.0 - - - - - - -
22/06:00pm 15.5 WSW 17 26 1014.6 - 0.0 - - - - - - -
22/05:52pm 15.0 WSW 16 26 1014.6 - 0.0 - - - - - - -
22/05:30pm 14.2 SW 12 18 1014.9 - 0.0 - - - - - - -
22/05:00pm 14.4 S 6 10 1013.9 - 0.0 - - - - - - -
22/04:30pm 15.1 SSW 6 11 1015.1 - 0.0 - - - - - - -
22/04:00pm 16.0 WSW 13 20 1014.9 - 0.0 - - - - - - -
22/03:30pm 17.1 SW 7 13 1015.2 - 0.0 - - - - - - -
22/03:00pm 17.9 W 6 9 1014.6 - 0.0 - - - - - - -
22/02:30pm 20.3 WSW 5 8 1014.5 - 0.0 - - - - - - -
22/02:00pm 19.8 W 5 6 1014.0 - 0.0 - - - - - - -
22/01:30pm 21.8 WNW 3 7 1014.6 - 0.0 - - - - - - -
22/01:00pm 19.0 E 7 8 1014.5 - 0.0 - - - - - - -
22/12:30pm 19.6 ESE 7 9 1015.3 - 0.0 - - - - - - -
22/12:00pm 18.3 ESE 6 8 1015.7 - 0.0 - - - - - - -
22/11:30am 20.0 NE 8 11 1016.2 - 0.0 - - - - - - -
22/11:00am 18.8 N 11 15 1016.6 - 0.0 - - - - - - -
22/10:30am 17.1 N 13 19 1016.9 - 0.0 - - - - - - -
22/10:00am 16.0 N 11 15 1017.4 - 0.0 - - - - - - -
22/09:30am 14.8 N 13 16 1017.8 - 0.0 - - - - - - -
22/09:00am 12.9 N 12 17 1017.7 - 0.0 - - - - - - -
22/08:30am 13.2 N 11 15 1018.3 - 0.0 - - - - - - -
22/08:00am 12.7 N 13 17 1018.4 - 0.0 - - - - - - -
22/07:30am 11.9 N 11 17 1018.6 - 0.0 - - - - - - -
22/07:00am 11.1 N 12 16 1018.6 - 0.0 - - - - - - -
22/06:30am 10.8 N 13 20 1018.7 - 0.0 - - - - - - -
22/06:00am 10.3 N 13 18 1018.8 - 0.0 - - - - - - -
22/05:30am 10.3 N 10 15 1018.8 - 0.0 - - - - - - -
22/05:00am 10.7 N 14 21 1018.8 - 0.0 - - - - - - -
22/04:30am 11.0 N 15 20 1019.2 - 0.0 - - - - - - -
22/04:00am 11.2 N 14 19 1019.7 - 0.0 - - - - - - -
22/03:30am 11.2 N 12 19 1020.2 - 0.0 - - - - - - -
22/03:00am 11.5 N 11 17 1020.8 - 0.0 - - - - - - -
22/02:30am 12.0 N 15 20 1021.1 - 0.0 - - - - - - -
22/02:00am 11.8 N 15 20 1021.8 - 0.0 - - - - - - -
22/01:30am 12.0 N 15 19 1022.4 - 0.0 - - - - - - -
22/01:00am 12.1 NNE 15 20 1023.0 - 0.0 - - - - - - -
22/12:30am 12.2 NNE 13 19 1023.3 - 0.0 - - - - - - -
22/12:00am 12.0 N 11 16 1023.6 - 0.0 - - - - - - -
 
Date/Time
EDT
Temp

°C
Wind Pressure Rain
since 9am
mm
Weather Cloud Vis
km
Sea
Height
m
Swell
Dir
 
Speed
knots
Gust
knots
hPa Trend Height
m
Period
s
Dir
21/11:30pm 12.0 NNE 12 19 1024.1 - 0.0 - - - - - - -
21/11:00pm 11.4 NE 10 13 1024.7 - 0.0 - - - - - - -
21/10:30pm 11.3 E 5 8 1025.0 - 0.0 - - - - - - -
21/10:00pm 11.3 NNE 8 11 1025.5 - 0.0 - - - - - - -
21/09:30pm 11.0 N 5 6 1026.0 - 0.0 - - - - - - -
21/09:00pm 11.2 NNE 5 5 1026.1 - 0.0 - - - - - - -
21/08:30pm 12.0 NNE 7 8 1026.2 - 0.0 - - - - - - -
21/08:00pm 12.5 NNE 8 9 1026.4 - 0.0 - - - - - - -
21/07:30pm 13.1 NNE 7 8 1026.5 - 0.0 - - - - - - -
21/07:00pm 15.4 NW 3 5 1026.7 - 0.0 - - - - - - -
21/06:30pm 16.1 ESE 4 5 1026.6 - 0.0 - - - - - - -
21/06:00pm 16.4 SE 3 6 1027.1 - 0.0 - - - - - - -
21/05:30pm 17.0 SE 5 7 1027.4 - 0.0 - - - - - - -
21/05:00pm 16.8 SE 9 12 1027.4 - 0.0 - - - - - - -
21/04:30pm 17.2 ESE 9 13 1027.7 - 0.0 - - - - - - -
21/04:00pm 18.5 NNE 9 13 1028.1 - 0.0 - - - - - - -
21/03:30pm 18.3 NE 9 15 1028.3 - 0.0 - - - - - - -
21/03:00pm 18.4 ENE 11 15 1028.8 - 0.0 - - - - - - -
21/02:30pm 18.2 NNE 9 13 1029.4 - 0.0 - - - - - - -
21/02:00pm 16.3 SE 9 11 1030.1 - 0.0 - - - - - - -
21/01:30pm 15.9 SE 7 11 1030.5 - 0.0 - - - - - - -
21/01:00pm 14.9 ESE 7 11 1030.9 - 0.0 - - - - - - -
21/12:30pm 15.5 SSE 6 8 1031.2 - 0.0 - - - - - - -
21/12:00pm 16.0 SSE 5 7 1031.6 - 0.0 - - - - - - -
21/11:30am 15.5 NE 7 10 1031.9 - 0.0 - - - - - - -
21/11:00am 15.4 NNE 7 11 1032.3 - 0.0 - - - - - - -
21/10:30am 13.7 NNE 9 11 1032.6 - 0.0 - - - - - - -
21/10:00am 12.4 N 11 15 1032.9 - 0.0 - - - - - - -
21/09:30am 11.1 N 12 16 1033.0 - 0.0 - - - - - - -
21/09:00am 10.5 N 12 16 1033.2 - 0.0 - - - - - - -
21/08:30am 10.2 N 12 15 1033.2 - 0.0 - - - - - - -
21/08:00am 9.5 N 12 15 1033.1 - 0.0 - - - - - - -
21/07:30am 8.8 N 10 14 1033.0 - 0.0 - - - - - - -
21/07:00am 7.8 N 10 14 1032.8 - 0.0 - - - - - - -
21/06:30am 7.1 N 9 14 1032.7 - 0.0 - - - - - - -
21/06:00am 7.2 NNE 8 13 1032.4 - 0.0 - - - - - - -
21/05:30am 7.1 N 5 9 1032.4 - 0.0 - - - - - - -
21/05:00am 6.8 N 6 8 1032.3 - 0.0 - - - - - - -
21/04:30am 6.8 NNW 6 8 1032.4 - 0.0 - - - - - - -
21/04:00am 6.5 N 5 6 1032.4 - 0.0 - - - - - - -
21/03:30am 6.7 N 6 7 1032.6 - 0.0 - - - - - - -
21/03:00am 6.7 NNE 5 7 1032.7 - 0.0 - - - - - - -
21/02:30am 7.2 NNE 4 5 1032.9 - 0.0 - - - - - - -
21/02:00am 7.2 NNE 4 5 1033.1 - 0.0 - - - - - - -
21/01:30am 8.1 NNE 5 6 1033.4 - 0.0 - - - - - - -
21/01:00am 8.4 N 4 5 1033.6 - 0.0 - - - - - - -
21/12:30am 8.5 N 5 6 1033.9 - 0.0 - - - - - - -
21/12:00am 8.5 NNE 6 6 1034.1 - 0.0 - - - - - - -
 
Date/Time
EDT
Temp

°C
Wind Pressure Rain
since 9am
mm
Weather Cloud Vis
km
Sea
Height
m
Swell
Dir
 
Speed
knots
Gust
knots
hPa Trend Height
m
Period
s
Dir
20/11:30pm 8.6 N 6 7 1034.3 - 0.0 - - - - - - -
20/11:00pm 8.5 NE 3 5 1034.7 - 0.0 - - - - - - -
20/10:30pm 9.3 S 1 4 1034.9 - 0.0 - - - - - - -
20/10:00pm 9.3 SSE 2 5 1035.1 - 0.0 - - - - - - -
20/09:30pm 9.5 SSW 5 8 1035.0 - 0.0 - - - - - - -
20/09:00pm 9.4 S 6 9 1034.9 - 0.0 - - - - - - -
20/08:30pm 9.5 SSW 5 8 1034.7 - 0.0 - - - - - - -
20/08:00pm 9.4 SW 7 11 1034.4 - 0.0 - - - - - - -
20/07:30pm 9.5 SW 8 13 1034.2 - 0.0 - - - - - - -
20/07:00pm 9.7 SSW 8 12 1034.1 - 0.0 - - - - - - -
20/06:30pm 9.8 SW 12 17 1034.0 - 0.0 - - - - - - -
20/06:00pm 10.1 SW 11 16 1033.8 - 0.0 - - - - - - -
20/05:30pm 10.7 SW 11 19 1033.8 - 0.0 - - - - - - -
20/05:00pm 11.6 SW 9 17 1033.8 - 0.0 - - - - - - -
20/04:30pm 11.3 SW 13 19 1033.6 - 0.0 - - - - - - -
20/04:00pm 11.3 SW 10 16 1033.6 - 0.0 - - - - - - -
20/03:30pm 12.1 SW 10 17 1033.5 - 0.0 - - - - - - -
20/03:00pm 11.8 SW 13 22 1033.5 - 0.0 - - - - - - -
20/02:30pm 12.3 SW 15 21 1033.6 - 0.0 - - - - - - -
20/02:00pm 11.8 SW 15 20 1033.9 - 0.0 - - - - - - -
20/01:30pm 11.1 SW 13 22 1034.0 - 0.0 - - - - - - -
20/01:00pm 11.9 SW 15 19 1034.1 - 0.0 - - - - - - -
20/12:30pm 12.2 SW 10 17 1034.2 - 0.0 - - - - - - -
20/12:00pm 12.0 WSW 9 13 1034.3 - 0.0 - - - - - - -
20/11:30am 11.5 SW 9 12 1034.4 - 0.0 - - - - - - -
20/11:00am 10.7 WSW 8 12 1034.3 - 0.0 - - - - - - -
20/10:30am 11.3 WSW 7 11 1034.1 - 0.0 - - - - - - -
20/10:00am 11.0 WSW 13 19 1033.8 - 0.0 - - - - - - -
20/09:30am 9.0 WSW 12 17 1033.5 - 0.0 - - - - - - -
20/09:00am 9.7 WSW 10 14 1033.2 - 5.4 - - - - - - -
20/08:30am 9.9 SW 10 16 1032.8 - 5.4 - - - - - - -
20/08:00am 9.0 WSW 11 17 1032.4 - 5.4 - - - - - - -
20/07:30am 8.6 SW 14 22 1031.8 - 5.4 - - - - - - -
20/07:00am 8.2 SW 15 20 1031.5 - 5.4 - - - - - - -
20/06:30am 7.8 SW 15 22 1031.3 - 5.4 - - - - - - -
20/06:00am 7.9 WSW 15 21 1030.8 - 5.4 - - - - - - -
20/05:30am 7.9 SW 16 22 1030.4 - 5.4 - - - - - - -
20/05:00am 8.3 SW 16 24 1029.8 - 5.4 - - - - - - -
20/04:32am 8.0 SW 16 26 1029.4 - 5.4 - - - - - - -
20/04:30am 8.0 SW 17 26 1029.4 - 5.4 - - - - - - -
20/04:00am 7.8 SW 19 27 1029.1 - 5.4 - - - - - - -
20/03:30am 7.9 SW 19 26 1028.8 - 5.4 - - - - - - -
20/03:00am 7.9 SW 19 27 1028.7 - 5.4 - - - - - - -
20/02:36am 8.1 SW 18 28 1028.4 - 5.4 - - - - - - -

Other Formats:

Comma delimited format used in spreadsheet applications
http://www.bom.gov.au/fwo/IDT60701/IDT60701.95967.axf

JavaScript Object Notation format (JSON) in row-major order
http://www.bom.gov.au/fwo/IDT60701/IDT60701.95967.json